sensor_id;sensor_type;location;lat;lon;timestamp;temperature;humidity
65040;HTU21D;51606;45.000;38.612;2024-01-30T00:00:42;-3.16;82.69
65040;HTU21D;51606;45.000;38.612;2024-01-30T00:03:08;-3.13;82.64
65040;HTU21D;51606;45.000;38.612;2024-01-30T00:05:35;-3.11;82.55
65040;HTU21D;51606;45.000;38.612;2024-01-30T00:08:01;-3.09;82.54
65040;HTU21D;51606;45.000;38.612;2024-01-30T00:10:28;-3.10;82.57
65040;HTU21D;51606;45.000;38.612;2024-01-30T00:12:54;-3.09;82.54
65040;HTU21D;51606;45.000;38.612;2024-01-30T00:15:20;-3.09;82.49
65040;HTU21D;51606;45.000;38.612;2024-01-30T00:17:47;-3.15;82.51
65040;HTU21D;51606;45.000;38.612;2024-01-30T00:20:13;-3.20;82.53
65040;HTU21D;51606;45.000;38.612;2024-01-30T00:22:40;-3.26;82.59
65040;HTU21D;51606;45.000;38.612;2024-01-30T00:25:07;-3.33;82.68
65040;HTU21D;51606;45.000;38.612;2024-01-30T00:27:33;-3.39;82.71
65040;HTU21D;51606;45.000;38.612;2024-01-30T00:30:00;-3.48;82.73
65040;HTU21D;51606;45.000;38.612;2024-01-30T00:32:26;-3.56;82.80
65040;HTU21D;51606;45.000;38.612;2024-01-30T00:34:53;-3.63;82.84
65040;HTU21D;51606;45.000;38.612;2024-01-30T00:37:19;-3.74;82.87
65040;HTU21D;51606;45.000;38.612;2024-01-30T00:39:46;-3.82;82.95
65040;HTU21D;51606;45.000;38.612;2024-01-30T00:42:12;-3.86;82.99
65040;HTU21D;51606;45.000;38.612;2024-01-30T00:44:38;-3.94;82.99
65040;HTU21D;51606;45.000;38.612;2024-01-30T00:47:18;-3.98;83.02
65040;HTU21D;51606;45.000;38.612;2024-01-30T00:50:14;-4.05;82.98
65040;HTU21D;51606;45.000;38.612;2024-01-30T00:52:40;-4.16;83.07
65040;HTU21D;51606;45.000;38.612;2024-01-30T00:55:07;-4.17;83.00
65040;HTU21D;51606;45.000;38.612;2024-01-30T00:57:34;-4.21;83.05
65040;HTU21D;51606;45.000;38.612;2024-01-30T01:00:00;-4.25;83.05
65040;HTU21D;51606;45.000;38.612;2024-01-30T01:02:26;-4.26;83.09
65040;HTU21D;51606;45.000;38.612;2024-01-30T01:04:53;-4.28;83.04
65040;HTU21D;51606;45.000;38.612;2024-01-30T01:07:19;-4.29;83.11
65040;HTU21D;51606;45.000;38.612;2024-01-30T01:09:45;-4.29;83.07
65040;HTU21D;51606;45.000;38.612;2024-01-30T01:12:12;-4.32;83.04
65040;HTU21D;51606;45.000;38.612;2024-01-30T01:14:38;-4.34;83.04
65040;HTU21D;51606;45.000;38.612;2024-01-30T01:17:04;-4.38;83.09
65040;HTU21D;51606;45.000;38.612;2024-01-30T01:19:31;-4.37;83.07
65040;HTU21D;51606;45.000;38.612;2024-01-30T01:21:57;-4.39;83.07
65040;HTU21D;51606;45.000;38.612;2024-01-30T01:24:24;-4.39;83.12
65040;HTU21D;51606;45.000;38.612;2024-01-30T01:26:50;-4.39;83.10
65040;HTU21D;51606;45.000;38.612;2024-01-30T01:29:16;-4.41;83.06
65040;HTU21D;51606;45.000;38.612;2024-01-30T01:31:43;-4.43;83.05
65040;HTU21D;51606;45.000;38.612;2024-01-30T01:34:12;-4.41;83.15
65040;HTU21D;51606;45.000;38.612;2024-01-30T01:36:39;-4.44;83.13
65040;HTU21D;51606;45.000;38.612;2024-01-30T01:39:06;-4.46;83.15
65040;HTU21D;51606;45.000;38.612;2024-01-30T01:41:33;-4.49;83.13
65040;HTU21D;51606;45.000;38.612;2024-01-30T01:43:59;-4.50;83.14
65040;HTU21D;51606;45.000;38.612;2024-01-30T01:46:27;-4.52;83.20
65040;HTU21D;51606;45.000;38.612;2024-01-30T01:48:56;-4.51;83.20
65040;HTU21D;51606;45.000;38.612;2024-01-30T01:51:26;-4.52;83.19
65040;HTU21D;51606;45.000;38.612;2024-01-30T01:53:54;-4.51;83.20
65040;HTU21D;51606;45.000;38.612;2024-01-30T01:56:21;-4.51;83.26
65040;HTU21D;51606;45.000;38.612;2024-01-30T01:58:49;-4.53;83.19
65040;HTU21D;51606;45.000;38.612;2024-01-30T02:01:19;-4.53;83.20
65040;HTU21D;51606;45.000;38.612;2024-01-30T02:03:46;-4.54;83.21
65040;HTU21D;51606;45.000;38.612;2024-01-30T02:06:13;-4.52;83.22
65040;HTU21D;51606;45.000;38.612;2024-01-30T02:08:41;-4.49;83.21
65040;HTU21D;51606;45.000;38.612;2024-01-30T02:11:08;-4.45;83.23
65040;HTU21D;51606;45.000;38.612;2024-01-30T02:13:36;-4.44;83.17
65040;HTU21D;51606;45.000;38.612;2024-01-30T02:16:03;-4.41;83.13
65040;HTU21D;51606;45.000;38.612;2024-01-30T02:18:30;-4.42;83.11
65040;HTU21D;51606;45.000;38.612;2024-01-30T02:20:58;-4.43;83.16
65040;HTU21D;51606;45.000;38.612;2024-01-30T02:23:27;-4.44;83.17
65040;HTU21D;51606;45.000;38.612;2024-01-30T02:25:54;-4.48;83.20
65040;HTU21D;51606;45.000;38.612;2024-01-30T02:28:20;-4.52;83.25
65040;HTU21D;51606;45.000;38.612;2024-01-30T02:30:46;-4.55;83.26
65040;HTU21D;51606;45.000;38.612;2024-01-30T02:33:13;-4.58;83.30
65040;HTU21D;51606;45.000;38.612;2024-01-30T02:35:39;-4.59;83.40
65040;HTU21D;51606;45.000;38.612;2024-01-30T02:38:06;-4.63;83.39
65040;HTU21D;51606;45.000;38.612;2024-01-30T02:40:32;-4.65;83.45
65040;HTU21D;51606;45.000;38.612;2024-01-30T02:43:02;-4.65;83.41
65040;HTU21D;51606;45.000;38.612;2024-01-30T02:45:29;-4.68;83.40
65040;HTU21D;51606;45.000;38.612;2024-01-30T02:47:55;-4.69;83.47
65040;HTU21D;51606;45.000;38.612;2024-01-30T02:50:21;-4.72;83.49
65040;HTU21D;51606;45.000;38.612;2024-01-30T02:52:48;-4.73;83.44
65040;HTU21D;51606;45.000;38.612;2024-01-30T02:55:14;-4.73;83.50
65040;HTU21D;51606;45.000;38.612;2024-01-30T02:57:43;-4.74;83.46
65040;HTU21D;51606;45.000;38.612;2024-01-30T03:00:10;-4.73;83.47
65040;HTU21D;51606;45.000;38.612;2024-01-30T03:02:36;-4.73;83.42
65040;HTU21D;51606;45.000;38.612;2024-01-30T03:05:05;-4.74;83.40
65040;HTU21D;51606;45.000;38.612;2024-01-30T03:07:31;-4.75;83.45
65040;HTU21D;51606;45.000;38.612;2024-01-30T03:09:57;-4.79;83.42
65040;HTU21D;51606;45.000;38.612;2024-01-30T03:12:24;-4.83;83.43
65040;HTU21D;51606;45.000;38.612;2024-01-30T03:14:50;-4.84;83.47
65040;HTU21D;51606;45.000;38.612;2024-01-30T03:17:17;-4.87;83.47
65040;HTU21D;51606;45.000;38.612;2024-01-30T03:19:43;-4.89;83.46
65040;HTU21D;51606;45.000;38.612;2024-01-30T03:22:09;-4.93;83.51
65040;HTU21D;51606;45.000;38.612;2024-01-30T03:24:36;-4.95;83.49
65040;HTU21D;51606;45.000;38.612;2024-01-30T03:27:02;-4.98;83.55
65040;HTU21D;51606;45.000;38.612;2024-01-30T03:29:28;-4.99;83.53
65040;HTU21D;51606;45.000;38.612;2024-01-30T03:31:55;-5.03;83.58
65040;HTU21D;51606;45.000;38.612;2024-01-30T03:34:21;-5.05;83.59
65040;HTU21D;51606;45.000;38.612;2024-01-30T03:36:47;-5.10;83.55
65040;HTU21D;51606;45.000;38.612;2024-01-30T03:39:14;-5.14;83.55
65040;HTU21D;51606;45.000;38.612;2024-01-30T03:41:42;-5.15;83.65
65040;HTU21D;51606;45.000;38.612;2024-01-30T03:44:10;-5.17;83.65
65040;HTU21D;51606;45.000;38.612;2024-01-30T03:46:38;-5.17;83.64
65040;HTU21D;51606;45.000;38.612;2024-01-30T03:49:04;-5.19;83.59
65040;HTU21D;51606;45.000;38.612;2024-01-30T03:51:30;-5.24;83.57
65040;HTU21D;51606;45.000;38.612;2024-01-30T03:53:57;-5.25;83.65
65040;HTU21D;51606;45.000;38.612;2024-01-30T03:56:23;-5.27;83.59
65040;HTU21D;51606;45.000;38.612;2024-01-30T03:58:51;-5.28;83.57
65040;HTU21D;51606;45.000;38.612;2024-01-30T04:01:18;-5.29;83.59
65040;HTU21D;51606;45.000;38.612;2024-01-30T04:03:45;-5.31;83.63
65040;HTU21D;51606;45.000;38.612;2024-01-30T04:06:12;-5.33;83.64
65040;HTU21D;51606;45.000;38.612;2024-01-30T04:08:38;-5.34;83.65
65040;HTU21D;51606;45.000;38.612;2024-01-30T04:11:05;-5.35;83.65
65040;HTU21D;51606;45.000;38.612;2024-01-30T04:13:32;-5.39;83.61
65040;HTU21D;51606;45.000;38.612;2024-01-30T04:16:00;-5.41;83.63
65040;HTU21D;51606;45.000;38.612;2024-01-30T04:18:29;-5.43;83.74
65040;HTU21D;51606;45.000;38.612;2024-01-30T04:21:20;-5.45;83.65
65040;HTU21D;51606;45.000;38.612;2024-01-30T04:23:47;-5.46;83.63
65040;HTU21D;51606;45.000;38.612;2024-01-30T04:26:14;-5.46;83.67
65040;HTU21D;51606;45.000;38.612;2024-01-30T04:28:45;-5.46;83.65
65040;HTU21D;51606;45.000;38.612;2024-01-30T04:31:11;-5.47;83.62
65040;HTU21D;51606;45.000;38.612;2024-01-30T04:33:38;-5.52;83.60
65040;HTU21D;51606;45.000;38.612;2024-01-30T04:36:07;-5.53;83.64
65040;HTU21D;51606;45.000;38.612;2024-01-30T04:38:35;-5.54;83.64
65040;HTU21D;51606;45.000;38.612;2024-01-30T04:41:01;-5.54;83.61
65040;HTU21D;51606;45.000;38.612;2024-01-30T04:43:27;-5.53;83.52
65040;HTU21D;51606;45.000;38.612;2024-01-30T04:45:54;-5.54;83.48
65040;HTU21D;51606;45.000;38.612;2024-01-30T04:48:20;-5.55;83.50
65040;HTU21D;51606;45.000;38.612;2024-01-30T04:50:47;-5.55;83.53
65040;HTU21D;51606;45.000;38.612;2024-01-30T04:53:13;-5.50;83.50
65040;HTU21D;51606;45.000;38.612;2024-01-30T04:55:40;-5.50;83.42
65040;HTU21D;51606;45.000;38.612;2024-01-30T04:58:06;-5.54;83.39
65040;HTU21D;51606;45.000;38.612;2024-01-30T05:00:33;-5.52;83.45
65040;HTU21D;51606;45.000;38.612;2024-01-30T05:02:59;-5.53;83.44
65040;HTU21D;51606;45.000;38.612;2024-01-30T05:05:25;-5.54;83.48
65040;HTU21D;51606;45.000;38.612;2024-01-30T05:07:52;-5.48;83.53
65040;HTU21D;51606;45.000;38.612;2024-01-30T05:10:18;-5.37;83.45
65040;HTU21D;51606;45.000;38.612;2024-01-30T05:12:44;-5.25;83.36
65040;HTU21D;51606;45.000;38.612;2024-01-30T05:15:11;-5.10;83.13
65040;HTU21D;51606;45.000;38.612;2024-01-30T05:17:37;-4.96;83.01
65040;HTU21D;51606;45.000;38.612;2024-01-30T05:20:04;-4.75;82.78
65040;HTU21D;51606;45.000;38.612;2024-01-30T05:22:31;-4.57;82.50
65040;HTU21D;51606;45.000;38.612;2024-01-30T05:24:57;-4.42;82.39
65040;HTU21D;51606;45.000;38.612;2024-01-30T05:27:23;-4.26;82.36
65040;HTU21D;51606;45.000;38.612;2024-01-30T05:29:50;-4.01;82.29
65040;HTU21D;51606;45.000;38.612;2024-01-30T05:32:16;-3.72;82.03
65040;HTU21D;51606;45.000;38.612;2024-01-30T05:34:42;-3.36;81.75
65040;HTU21D;51606;45.000;38.612;2024-01-30T05:37:09;-3.07;81.42
65040;HTU21D;51606;45.000;38.612;2024-01-30T05:39:40;-2.84;81.50
65040;HTU21D;51606;45.000;38.612;2024-01-30T05:42:09;-2.57;81.54
65040;HTU21D;51606;45.000;38.612;2024-01-30T05:44:36;-2.18;81.52
65040;HTU21D;51606;45.000;38.612;2024-01-30T05:47:03;-1.79;81.35
65040;HTU21D;51606;45.000;38.612;2024-01-30T05:49:29;-1.48;81.54
65040;HTU21D;51606;45.000;38.612;2024-01-30T05:51:56;-1.16;81.68
65040;HTU21D;51606;45.000;38.612;2024-01-30T05:54:22;-0.77;81.91
65040;HTU21D;51606;45.000;38.612;2024-01-30T05:56:48;-0.43;81.97
65040;HTU21D;51606;45.000;38.612;2024-01-30T05:59:14;-0.20;82.53
65040;HTU21D;51606;45.000;38.612;2024-01-30T06:01:47;0.04;83.04
65040;HTU21D;51606;45.000;38.612;2024-01-30T06:04:15;0.19;83.70
65040;HTU21D;51606;45.000;38.612;2024-01-30T06:06:41;0.29;84.11
65040;HTU21D;51606;45.000;38.612;2024-01-30T06:09:08;0.42;84.72
65040;HTU21D;51606;45.000;38.612;2024-01-30T06:11:35;0.61;85.26
65040;HTU21D;51606;45.000;38.612;2024-01-30T06:14:01;0.82;85.73
65040;HTU21D;51606;45.000;38.612;2024-01-30T06:16:28;0.98;86.03
65040;HTU21D;51606;45.000;38.612;2024-01-30T06:18:56;1.17;86.57
65040;HTU21D;51606;45.000;38.612;2024-01-30T06:21:23;1.48;86.75
65040;HTU21D;51606;45.000;38.612;2024-01-30T06:23:50;1.69;86.32
65040;HTU21D;51606;45.000;38.612;2024-01-30T06:26:16;1.52;85.77
65040;HTU21D;51606;45.000;38.612;2024-01-30T06:28:42;1.12;85.45
65040;HTU21D;51606;45.000;38.612;2024-01-30T06:31:10;0.78;85.51
65040;HTU21D;51606;45.000;38.612;2024-01-30T06:33:36;0.92;86.09
65040;HTU21D;51606;45.000;38.612;2024-01-30T06:36:03;1.03;84.63
65040;HTU21D;51606;45.000;38.612;2024-01-30T06:38:29;0.78;84.42
65040;HTU21D;51606;45.000;38.612;2024-01-30T06:40:55;0.69;84.70
65040;HTU21D;51606;45.000;38.612;2024-01-30T06:43:22;0.90;84.47
65040;HTU21D;51606;45.000;38.612;2024-01-30T06:45:48;0.91;83.93
65040;HTU21D;51606;45.000;38.612;2024-01-30T06:48:15;1.23;84.24
65040;HTU21D;51606;45.000;38.612;2024-01-30T06:50:41;1.51;83.66
65040;HTU21D;51606;45.000;38.612;2024-01-30T06:53:08;2.22;83.29
65040;HTU21D;51606;45.000;38.612;2024-01-30T06:55:34;2.90;82.49
65040;HTU21D;51606;45.000;38.612;2024-01-30T06:58:00;3.48;82.39
65040;HTU21D;51606;45.000;38.612;2024-01-30T07:00:27;4.01;81.97
65040;HTU21D;51606;45.000;38.612;2024-01-30T07:02:53;4.46;82.00
65040;HTU21D;51606;45.000;38.612;2024-01-30T07:05:19;5.00;81.85
65040;HTU21D;51606;45.000;38.612;2024-01-30T07:07:47;5.63;81.43
65040;HTU21D;51606;45.000;38.612;2024-01-30T07:10:14;6.12;81.07
65040;HTU21D;51606;45.000;38.612;2024-01-30T07:12:40;6.35;81.09
65040;HTU21D;51606;45.000;38.612;2024-01-30T07:15:07;6.46;81.49
65040;HTU21D;51606;45.000;38.612;2024-01-30T07:17:36;6.80;81.68
65040;HTU21D;51606;45.000;38.612;2024-01-30T07:20:03;7.15;81.37
65040;HTU21D;51606;45.000;38.612;2024-01-30T07:22:30;7.44;81.22
65040;HTU21D;51606;45.000;38.612;2024-01-30T07:24:57;7.74;81.20
65040;HTU21D;51606;45.000;38.612;2024-01-30T07:27:23;8.00;81.03
65040;HTU21D;51606;45.000;38.612;2024-01-30T07:29:49;8.29;80.88
65040;HTU21D;51606;45.000;38.612;2024-01-30T07:32:16;8.56;80.81
65040;HTU21D;51606;45.000;38.612;2024-01-30T07:34:42;8.94;80.40
65040;HTU21D;51606;45.000;38.612;2024-01-30T07:37:09;9.18;80.23
65040;HTU21D;51606;45.000;38.612;2024-01-30T07:39:36;9.36;80.11
65040;HTU21D;51606;45.000;38.612;2024-01-30T07:42:03;9.45;80.29
65040;HTU21D;51606;45.000;38.612;2024-01-30T07:44:30;9.54;80.27
65040;HTU21D;51606;45.000;38.612;2024-01-30T07:46:56;9.76;80.17
65040;HTU21D;51606;45.000;38.612;2024-01-30T07:49:23;9.77;80.15
65040;HTU21D;51606;45.000;38.612;2024-01-30T07:52:31;9.81;79.91
65040;HTU21D;51606;45.000;38.612;2024-01-30T07:54:56;9.82;80.62
65040;HTU21D;51606;45.000;38.612;2024-01-30T07:57:23;9.94;80.64
65040;HTU21D;51606;45.000;38.612;2024-01-30T07:59:49;10.07;80.42
65040;HTU21D;51606;45.000;38.612;2024-01-30T08:02:16;10.12;80.20
65040;HTU21D;51606;45.000;38.612;2024-01-30T08:04:44;10.05;80.12
65040;HTU21D;51606;45.000;38.612;2024-01-30T08:07:14;10.06;80.40
65040;HTU21D;51606;45.000;38.612;2024-01-30T08:09:41;10.13;80.06
65040;HTU21D;51606;45.000;38.612;2024-01-30T08:12:07;10.05;80.61
65040;HTU21D;51606;45.000;38.612;2024-01-30T08:14:34;9.95;80.32
65040;HTU21D;51606;45.000;38.612;2024-01-30T08:17:00;9.86;80.45
65040;HTU21D;51606;45.000;38.612;2024-01-30T08:19:26;9.79;80.60
65040;HTU21D;51606;45.000;38.612;2024-01-30T08:21:53;9.85;80.37
65040;HTU21D;51606;45.000;38.612;2024-01-30T08:24:19;9.72;80.48
65040;HTU21D;51606;45.000;38.612;2024-01-30T08:26:45;9.67;80.56
65040;HTU21D;51606;45.000;38.612;2024-01-30T08:29:12;9.62;80.33
65040;HTU21D;51606;45.000;38.612;2024-01-30T08:31:38;9.54;80.93
65040;HTU21D;51606;45.000;38.612;2024-01-30T08:34:04;9.80;80.82
65040;HTU21D;51606;45.000;38.612;2024-01-30T08:36:31;9.77;80.50
65040;HTU21D;51606;45.000;38.612;2024-01-30T08:38:57;9.74;80.63
65040;HTU21D;51606;45.000;38.612;2024-01-30T08:41:24;9.75;80.85
65040;HTU21D;51606;45.000;38.612;2024-01-30T08:43:52;9.80;80.81
65040;HTU21D;51606;45.000;38.612;2024-01-30T08:46:19;9.75;80.80
65040;HTU21D;51606;45.000;38.612;2024-01-30T08:48:46;9.78;80.77
65040;HTU21D;51606;45.000;38.612;2024-01-30T08:51:13;9.98;80.68
65040;HTU21D;51606;45.000;38.612;2024-01-30T08:53:41;10.03;80.41
65040;HTU21D;51606;45.000;38.612;2024-01-30T08:56:07;10.11;80.57
65040;HTU21D;51606;45.000;38.612;2024-01-30T08:58:34;10.27;80.73
65040;HTU21D;51606;45.000;38.612;2024-01-30T09:01:00;10.38;79.89
65040;HTU21D;51606;45.000;38.612;2024-01-30T09:03:26;10.22;80.14
65040;HTU21D;51606;45.000;38.612;2024-01-30T09:05:53;10.24;80.30
65040;HTU21D;51606;45.000;38.612;2024-01-30T09:08:19;10.28;79.99
65040;HTU21D;51606;45.000;38.612;2024-01-30T09:10:46;9.85;80.20
65040;HTU21D;51606;45.000;38.612;2024-01-30T09:13:12;9.60;81.01
65040;HTU21D;51606;45.000;38.612;2024-01-30T09:15:38;9.60;81.46
65040;HTU21D;51606;45.000;38.612;2024-01-30T09:18:05;9.56;81.68
65040;HTU21D;51606;45.000;38.612;2024-01-30T09:20:32;9.30;81.29
65040;HTU21D;51606;45.000;38.612;2024-01-30T09:22:59;9.25;82.05
65040;HTU21D;51606;45.000;38.612;2024-01-30T09:25:25;9.38;81.63
65040;HTU21D;51606;45.000;38.612;2024-01-30T09:27:52;9.25;81.55
65040;HTU21D;51606;45.000;38.612;2024-01-30T09:30:18;9.15;82.15
65040;HTU21D;51606;45.000;38.612;2024-01-30T09:32:44;9.14;81.94
65040;HTU21D;51606;45.000;38.612;2024-01-30T09:35:11;8.98;82.06
65040;HTU21D;51606;45.000;38.612;2024-01-30T09:37:37;8.82;82.42
65040;HTU21D;51606;45.000;38.612;2024-01-30T09:40:04;8.81;82.64
65040;HTU21D;51606;45.000;38.612;2024-01-30T09:42:34;8.59;82.39
65040;HTU21D;51606;45.000;38.612;2024-01-30T09:45:06;8.26;82.81
65040;HTU21D;51606;45.000;38.612;2024-01-30T09:47:41;8.02;83.01
65040;HTU21D;51606;45.000;38.612;2024-01-30T09:50:11;8.02;83.63
65040;HTU21D;51606;45.000;38.612;2024-01-30T09:52:38;8.21;83.33
65040;HTU21D;51606;45.000;38.612;2024-01-30T09:55:05;8.18;82.70
65040;HTU21D;51606;45.000;38.612;2024-01-30T09:57:34;7.91;83.28
65040;HTU21D;51606;45.000;38.612;2024-01-30T10:00:00;7.71;83.61
65040;HTU21D;51606;45.000;38.612;2024-01-30T10:02:27;7.49;83.73
65040;HTU21D;51606;45.000;38.612;2024-01-30T10:04:53;7.18;84.27
65040;HTU21D;51606;45.000;38.612;2024-01-30T10:07:20;7.04;84.41
65040;HTU21D;51606;45.000;38.612;2024-01-30T10:09:47;6.93;84.68
65040;HTU21D;51606;45.000;38.612;2024-01-30T10:12:13;6.94;84.07
65040;HTU21D;51606;45.000;38.612;2024-01-30T10:14:40;6.68;82.96
65040;HTU21D;51606;45.000;38.612;2024-01-30T10:17:11;6.19;81.76
65040;HTU21D;51606;45.000;38.612;2024-01-30T10:19:41;5.53;81.60
65040;HTU21D;51606;45.000;38.612;2024-01-30T10:22:09;5.08;81.78
65040;HTU21D;51606;45.000;38.612;2024-01-30T10:24:35;4.87;81.30
65040;HTU21D;51606;45.000;38.612;2024-01-30T10:27:02;4.62;80.81
65040;HTU21D;51606;45.000;38.612;2024-01-30T10:29:29;4.33;80.39
65040;HTU21D;51606;45.000;38.612;2024-01-30T10:32:02;3.98;80.07
65040;HTU21D;51606;45.000;38.612;2024-01-30T10:34:30;3.62;80.20
65040;HTU21D;51606;45.000;38.612;2024-01-30T10:37:10;3.36;80.03
65040;HTU21D;51606;45.000;38.612;2024-01-30T10:39:39;3.25;79.82
65040;HTU21D;51606;45.000;38.612;2024-01-30T10:42:11;3.13;79.18
65040;HTU21D;51606;45.000;38.612;2024-01-30T10:44:54;2.90;78.78
65040;HTU21D;51606;45.000;38.612;2024-01-30T10:47:27;2.74;78.63
65040;HTU21D;51606;45.000;38.612;2024-01-30T10:49:54;2.66;78.41
65040;HTU21D;51606;45.000;38.612;2024-01-30T10:52:23;2.55;78.05
65040;HTU21D;51606;45.000;38.612;2024-01-30T10:54:53;2.46;77.92
65040;HTU21D;51606;45.000;38.612;2024-01-30T10:57:20;2.38;77.62
65040;HTU21D;51606;45.000;38.612;2024-01-30T10:59:49;2.31;77.32
65040;HTU21D;51606;45.000;38.612;2024-01-30T11:02:16;2.26;77.27
65040;HTU21D;51606;45.000;38.612;2024-01-30T11:04:43;2.26;77.21
65040;HTU21D;51606;45.000;38.612;2024-01-30T11:07:23;2.28;76.93
65040;HTU21D;51606;45.000;38.612;2024-01-30T11:09:54;2.30;76.66
65040;HTU21D;51606;45.000;38.612;2024-01-30T11:12:32;2.25;76.13
65040;HTU21D;51606;45.000;38.612;2024-01-30T11:15:03;2.22;76.22
65040;HTU21D;51606;45.000;38.612;2024-01-30T11:20:21;2.16;75.66
65040;HTU21D;51606;45.000;38.612;2024-01-30T11:23:30;2.05;75.66
65040;HTU21D;51606;45.000;38.612;2024-01-30T11:25:57;1.99;75.60
65040;HTU21D;51606;45.000;38.612;2024-01-30T11:28:23;1.94;75.57
65040;HTU21D;51606;45.000;38.612;2024-01-30T11:30:50;1.90;75.46
65040;HTU21D;51606;45.000;38.612;2024-01-30T11:33:28;1.86;75.51
65040;HTU21D;51606;45.000;38.612;2024-01-30T11:35:59;1.92;75.51
65040;HTU21D;51606;45.000;38.612;2024-01-30T11:38:29;1.91;75.27
65040;HTU21D;51606;45.000;38.612;2024-01-30T11:40:56;1.93;75.25
65040;HTU21D;51606;45.000;38.612;2024-01-30T11:43:25;1.95;75.15
65040;HTU21D;51606;45.000;38.612;2024-01-30T11:45:51;1.96;75.11
65040;HTU21D;51606;45.000;38.612;2024-01-30T11:48:18;1.94;74.96
65040;HTU21D;51606;45.000;38.612;2024-01-30T11:50:45;1.93;74.95
65040;HTU21D;51606;45.000;38.612;2024-01-30T11:53:11;1.92;74.84
65040;HTU21D;51606;45.000;38.612;2024-01-30T11:55:38;1.87;74.64
65040;HTU21D;51606;45.000;38.612;2024-01-30T11:58:04;1.83;74.58
65040;HTU21D;51606;45.000;38.612;2024-01-30T12:00:30;1.80;74.69
65040;HTU21D;51606;45.000;38.612;2024-01-30T12:02:58;1.78;74.55
65040;HTU21D;51606;45.000;38.612;2024-01-30T12:05:27;1.77;74.65
65040;HTU21D;51606;45.000;38.612;2024-01-30T12:07:54;1.72;74.59
65040;HTU21D;51606;45.000;38.612;2024-01-30T12:10:21;1.70;74.64
65040;HTU21D;51606;45.000;38.612;2024-01-30T12:12:49;1.71;74.56
65040;HTU21D;51606;45.000;38.612;2024-01-30T12:15:16;1.70;74.51
65040;HTU21D;51606;45.000;38.612;2024-01-30T12:17:43;1.69;74.60
65040;HTU21D;51606;45.000;38.612;2024-01-30T12:20:19;1.68;74.55
65040;HTU21D;51606;45.000;38.612;2024-01-30T12:22:48;1.65;74.50
65040;HTU21D;51606;45.000;38.612;2024-01-30T12:25:17;1.63;74.59
65040;HTU21D;51606;45.000;38.612;2024-01-30T12:27:45;1.61;74.62
65040;HTU21D;51606;45.000;38.612;2024-01-30T12:30:13;1.61;74.57
65040;HTU21D;51606;45.000;38.612;2024-01-30T12:32:41;1.56;74.61
65040;HTU21D;51606;45.000;38.612;2024-01-30T12:35:15;1.54;74.60
65040;HTU21D;51606;45.000;38.612;2024-01-30T12:37:44;1.51;74.60
65040;HTU21D;51606;45.000;38.612;2024-01-30T12:40:11;1.45;74.60
65040;HTU21D;51606;45.000;38.612;2024-01-30T12:42:46;1.41;74.66
65040;HTU21D;51606;45.000;38.612;2024-01-30T12:45:16;1.37;74.70
65040;HTU21D;51606;45.000;38.612;2024-01-30T12:47:46;1.34;74.68
65040;HTU21D;51606;45.000;38.612;2024-01-30T12:50:12;1.31;74.70
65040;HTU21D;51606;45.000;38.612;2024-01-30T12:52:43;1.27;74.66
65040;HTU21D;51606;45.000;38.612;2024-01-30T12:55:09;1.26;74.66
65040;HTU21D;51606;45.000;38.612;2024-01-30T12:57:36;1.23;74.61
65040;HTU21D;51606;45.000;38.612;2024-01-30T13:00:02;1.18;74.64
65040;HTU21D;51606;45.000;38.612;2024-01-30T13:02:29;1.13;74.64
65040;HTU21D;51606;45.000;38.612;2024-01-30T13:05:02;1.10;74.69
65040;HTU21D;51606;45.000;38.612;2024-01-30T13:07:28;1.05;74.68
65040;HTU21D;51606;45.000;38.612;2024-01-30T13:09:54;1.01;74.67
65040;HTU21D;51606;45.000;38.612;2024-01-30T13:12:21;0.96;74.76
65040;HTU21D;51606;45.000;38.612;2024-01-30T13:14:47;0.93;74.77
65040;HTU21D;51606;45.000;38.612;2024-01-30T13:17:14;0.89;74.80
65040;HTU21D;51606;45.000;38.612;2024-01-30T13:19:40;0.84;74.82
65040;HTU21D;51606;45.000;38.612;2024-01-30T13:22:06;0.81;74.83
65040;HTU21D;51606;45.000;38.612;2024-01-30T13:24:33;0.77;74.83
65040;HTU21D;51606;45.000;38.612;2024-01-30T13:26:59;0.72;74.89
65040;HTU21D;51606;45.000;38.612;2024-01-30T13:29:25;0.68;74.84
65040;HTU21D;51606;45.000;38.612;2024-01-30T13:31:52;0.63;74.88
65040;HTU21D;51606;45.000;38.612;2024-01-30T13:34:18;0.59;74.89
65040;HTU21D;51606;45.000;38.612;2024-01-30T13:36:44;0.53;74.93
65040;HTU21D;51606;45.000;38.612;2024-01-30T13:39:11;0.49;74.99
65040;HTU21D;51606;45.000;38.612;2024-01-30T13:41:38;0.46;74.94
65040;HTU21D;51606;45.000;38.612;2024-01-30T13:44:05;0.39;74.96
65040;HTU21D;51606;45.000;38.612;2024-01-30T13:46:31;0.32;75.06
65040;HTU21D;51606;45.000;38.612;2024-01-30T13:48:58;0.27;75.11
65040;HTU21D;51606;45.000;38.612;2024-01-30T13:51:24;0.19;75.18
65040;HTU21D;51606;45.000;38.612;2024-01-30T13:53:50;0.12;75.19
65040;HTU21D;51606;45.000;38.612;2024-01-30T13:56:17;0.05;75.25
65040;HTU21D;51606;45.000;38.612;2024-01-30T13:58:43;-0.02;75.33
65040;HTU21D;51606;45.000;38.612;2024-01-30T14:01:09;-0.08;75.36
65040;HTU21D;51606;45.000;38.612;2024-01-30T14:03:36;-0.13;75.33
65040;HTU21D;51606;45.000;38.612;2024-01-30T14:06:02;-0.21;75.36
65040;HTU21D;51606;45.000;38.612;2024-01-30T14:08:28;-0.29;75.44
65040;HTU21D;51606;45.000;38.612;2024-01-30T14:10:55;-0.35;75.50
65040;HTU21D;51606;45.000;38.612;2024-01-30T14:13:22;-0.42;75.54
65040;HTU21D;51606;45.000;38.612;2024-01-30T14:15:49;-0.50;75.58
65040;HTU21D;51606;45.000;38.612;2024-01-30T14:18:18;-0.56;75.63
65040;HTU21D;51606;45.000;38.612;2024-01-30T14:20:44;-0.62;75.64
65040;HTU21D;51606;45.000;38.612;2024-01-30T14:23:11;-0.70;75.67
65040;HTU21D;51606;45.000;38.612;2024-01-30T14:25:37;-0.73;75.70
65040;HTU21D;51606;45.000;38.612;2024-01-30T14:28:04;-0.80;75.68
65040;HTU21D;51606;45.000;38.612;2024-01-30T14:30:31;-0.87;75.72
65040;HTU21D;51606;45.000;38.612;2024-01-30T14:32:57;-0.95;75.70
65040;HTU21D;51606;45.000;38.612;2024-01-30T14:35:23;-1.03;75.79
65040;HTU21D;51606;45.000;38.612;2024-01-30T14:37:50;-1.12;75.94
65040;HTU21D;51606;45.000;38.612;2024-01-30T14:40:17;-1.16;75.89
65040;HTU21D;51606;45.000;38.612;2024-01-30T14:42:44;-1.24;75.96
65040;HTU21D;51606;45.000;38.612;2024-01-30T14:45:10;-1.31;76.02
65040;HTU21D;51606;45.000;38.612;2024-01-30T14:47:37;-1.39;76.04
65040;HTU21D;51606;45.000;38.612;2024-01-30T14:50:04;-1.47;76.09
65040;HTU21D;51606;45.000;38.612;2024-01-30T14:52:31;-1.50;76.12
65040;HTU21D;51606;45.000;38.612;2024-01-30T14:55:00;-1.59;76.14
65040;HTU21D;51606;45.000;38.612;2024-01-30T14:57:27;-1.65;76.21
65040;HTU21D;51606;45.000;38.612;2024-01-30T14:59:54;-1.71;76.17
65040;HTU21D;51606;45.000;38.612;2024-01-30T15:02:20;-1.80;76.21
65040;HTU21D;51606;45.000;38.612;2024-01-30T15:04:47;-1.91;76.34
65040;HTU21D;51606;45.000;38.612;2024-01-30T15:07:13;-1.98;76.37
65040;HTU21D;51606;45.000;38.612;2024-01-30T15:09:40;-2.00;76.40
65040;HTU21D;51606;45.000;38.612;2024-01-30T15:12:06;-2.02;76.22